createdAt,value
2018-07-23T00:00:18.518Z,87.7
2018-07-23T00:01:18.545Z,87.88
2018-07-23T00:02:18.567Z,88.65
2018-07-23T00:03:18.593Z,88.71
2018-07-23T00:04:18.618Z,88.75
2018-07-23T00:05:18.645Z,87.98
2018-07-23T00:06:18.673Z,88.65
2018-07-23T00:07:18.691Z,87.98
2018-07-23T00:08:18.720Z,87.79
2018-07-23T00:09:18.789Z,87.7
2018-07-23T00:10:18.773Z,87.88
2018-07-23T00:11:18.790Z,87.88
2018-07-23T00:12:18.558Z,87.88
2018-07-23T00:13:18.841Z,87.88
2018-07-23T00:14:18.610Z,87.7
2018-07-23T00:15:18.892Z,87.7
2018-07-23T00:17:18.942Z,87.6
2018-07-23T00:18:18.970Z,87.98
2018-07-23T00:19:18.991Z,87.88
2018-07-23T00:20:18.757Z,88.08
2018-07-23T00:21:19.038Z,88.08
2018-07-23T00:22:19.063Z,88.56
2018-07-23T00:23:33.752Z,87.88
2018-07-23T00:24:19.116Z,88.17
2018-07-23T00:25:19.136Z,88.37
2018-07-23T00:26:18.906Z,88.46
2018-07-23T00:27:19.192Z,88.56
2018-07-23T00:28:19.214Z,88.85
2018-07-23T00:29:19.239Z,89.04
2018-07-23T00:30:19.267Z,88.85
2018-07-23T00:31:19.285Z,89.39
2018-07-23T00:32:19.334Z,89.23
2018-07-23T00:33:19.340Z,89.53
2018-07-23T00:34:19.362Z,89.39
2018-07-23T00:35:19.387Z,89.62
2018-07-23T00:36:19.415Z,90.1
2018-07-23T00:37:19.439Z,89.81
2018-07-23T00:38:19.461Z,90.16
2018-07-23T00:39:34.150Z,90.73
2018-07-23T00:40:19.515Z,89.86
2018-07-23T00:41:19.535Z,90.44
2018-07-23T00:42:19.561Z,91.02
2018-07-23T00:43:19.329Z,90.64
2018-07-23T00:44:19.611Z,91.02
2018-07-23T00:45:19.380Z,90.64
2018-07-23T00:46:19.402Z,91.12
2018-07-23T00:47:19.687Z,90.73
2018-07-23T00:48:19.712Z,90.83
2018-07-23T00:49:19.835Z,90.83
2018-07-23T00:50:19.760Z,91.02
2018-07-23T00:51:19.785Z,90.92
2018-07-23T00:52:19.809Z,90.64
2018-07-23T00:53:19.835Z,90.83
2018-07-23T00:54:19.858Z,90.73
2018-07-23T00:55:34.545Z,91.31
2018-07-23T00:56:19.908Z,90.64
2018-07-23T00:57:19.934Z,91.41
2018-07-23T00:58:19.959Z,91.6
2018-07-23T00:59:19.979Z,91.31
2018-07-23T01:00:20.006Z,91.31
2018-07-23T01:01:20.032Z,91.5
2018-07-23T01:02:19.808Z,91.5
2018-07-23T01:03:20.080Z,92.18
2018-07-23T01:04:20.107Z,91.99
2018-07-23T01:05:20.132Z,92.13
2018-07-23T01:06:20.157Z,92.13
2018-07-23T01:07:20.180Z,92.22
2018-07-23T01:08:20.208Z,91.99
2018-07-23T01:09:20.230Z,92.13
2018-07-23T01:10:20.252Z,91.94
2018-07-23T01:11:34.945Z,92.13
2018-07-23T01:12:20.047Z,92.03
2018-07-23T01:13:20.327Z,91.65
2018-07-23T01:14:20.354Z,92.03
2018-07-23T01:15:20.379Z,92.22
2018-07-23T01:16:20.405Z,92.22
2018-07-23T01:17:20.425Z,92.42
2018-07-23T01:18:20.453Z,93
2018-07-23T01:19:20.480Z,92.71
2018-07-23T01:20:20.245Z,92.71
2018-07-23T01:21:20.269Z,93.09
2018-07-23T01:22:20.558Z,93
2018-07-23T01:24:20.603Z,92.71
2018-07-23T01:25:20.368Z,93.19
2018-07-23T01:26:35.314Z,93.29
2018-07-23T01:27:20.674Z,93.67
2018-07-23T01:28:20.703Z,93.29
2018-07-23T01:29:20.467Z,93.87
2018-07-23T01:30:20.751Z,93.77
2018-07-23T01:31:20.776Z,93.77
2018-07-23T01:32:20.803Z,94.06
2018-07-23T01:33:20.827Z,93.57
2018-07-23T01:35:20.621Z,94.44
2018-07-23T01:36:20.901Z,94.25
2018-07-23T01:37:20.924Z,94.78
2018-07-23T01:38:20.949Z,94.59
2018-07-23T01:39:20.970Z,94.68
2018-07-23T01:40:20.740Z,94.87
2018-07-23T01:41:21.019Z,95.36
2018-07-23T01:42:21.049Z,95.07
2018-07-23T01:43:21.072Z,95.07
2018-07-23T01:44:21.104Z,94.97
2018-07-23T01:45:21.125Z,95.55
2018-07-23T01:46:21.148Z,95.26
2018-07-23T01:47:21.169Z,95.21
2018-07-23T01:48:21.194Z,95.17
2018-07-23T01:49:21.223Z,95.65
2018-07-23T01:51:21.267Z,95.55
2018-07-23T01:52:21.292Z,95.74
2018-07-23T01:53:21.320Z,95.55
2018-07-23T01:54:21.085Z,95.55
2018-07-23T01:55:21.371Z,95.94
2018-07-23T01:56:21.394Z,96.03
2018-07-23T01:57:21.416Z,95.84
2018-07-23T01:58:36.102Z,95.84
2018-07-23T01:59:21.474Z,95.84
2018-07-23T02:00:21.231Z,95.65
2018-07-23T02:02:21.538Z,95.74
2018-07-23T02:03:21.563Z,95.65
2018-07-23T02:04:21.628Z,95.84
2018-07-23T02:05:21.352Z,96.03
2018-07-23T02:08:21.683Z,95.65
2018-07-23T02:10:21.741Z,94.97
2018-07-23T02:11:21.766Z,95.07
2018-07-23T02:12:21.793Z,95.17
2018-07-23T02:13:21.552Z,94.87
2018-07-23T02:14:36.495Z,94.59
2018-07-23T02:15:21.855Z,94.59
2018-07-23T02:16:21.887Z,94.01
2018-07-23T02:17:21.649Z,94.3
2018-07-23T02:18:21.763Z,94.3
2018-07-23T02:19:21.698Z,94.59
2018-07-23T02:20:21.987Z,94.4
2018-07-23T02:21:22.002Z,94.59
2018-07-23T02:22:22.028Z,94.3
2018-07-23T02:23:22.057Z,93.91
2018-07-23T02:24:22.080Z,93.72
2018-07-23T02:25:22.102Z,93.43
2018-07-23T02:26:22.128Z,94.3
2018-07-23T02:27:22.151Z,93.72
2018-07-23T02:28:22.173Z,93.91
2018-07-23T02:29:21.943Z,94.01
2018-07-23T02:30:36.888Z,93.53
2018-07-23T02:31:22.248Z,93.53
2018-07-23T02:32:22.274Z,93.53
2018-07-23T02:33:22.300Z,94.1
2018-07-23T02:34:22.326Z,94.01
2018-07-23T02:35:22.344Z,94.01
2018-07-23T02:36:22.372Z,93.72
2018-07-23T02:37:22.399Z,93.72
2018-07-23T02:38:22.420Z,93.72
2018-07-23T02:39:22.444Z,93.82
2018-07-23T02:40:22.212Z,93.53
2018-07-23T02:41:22.493Z,94.3
2018-07-23T02:42:22.518Z,94.2
2018-07-23T02:43:22.544Z,94.2
2018-07-23T02:44:22.568Z,94.4
2018-07-23T02:45:22.593Z,95.07
2018-07-23T02:46:37.278Z,95.45
2018-07-23T02:47:22.646Z,95.26
2018-07-23T02:48:22.666Z,94.97
2018-07-23T02:49:22.689Z,95.55
2018-07-23T02:50:22.456Z,95.36
2018-07-23T02:51:22.837Z,95.74
2018-07-23T02:52:22.775Z,95.7
2018-07-23T02:53:22.795Z,95.7
2018-07-23T02:54:22.813Z,95.74
2018-07-23T02:55:22.586Z,96.47
2018-07-23T02:56:22.864Z,95.98
2018-07-23T02:57:22.883Z,95.89
2018-07-23T02:58:22.910Z,96.37
2018-07-23T02:59:22.677Z,96.08
2018-07-23T03:00:22.961Z,95.98
2018-07-23T03:01:37.646Z,95.89
2018-07-23T03:02:23.008Z,96.17
2018-07-23T03:03:23.033Z,96.37
2018-07-23T03:04:23.055Z,96.47
2018-07-23T03:06:22.849Z,96.75
2018-07-23T03:07:23.131Z,96.75
2018-07-23T03:08:23.203Z,97.52
2018-07-23T03:10:22.944Z,97.14
2018-07-23T03:11:23.229Z,97.33
2018-07-23T03:13:23.275Z,96.85
2018-07-23T03:14:23.301Z,97.14
2018-07-23T03:15:23.323Z,97.42
2018-07-23T03:16:23.352Z,97.14
2018-07-23T03:17:23.374Z,97.14
2018-07-23T03:18:23.397Z,97.42
2018-07-23T03:19:23.424Z,97.91
2018-07-23T03:20:23.189Z,97.71
2018-07-23T03:21:23.470Z,97.71
2018-07-23T03:22:23.240Z,97.52
2018-07-23T03:23:23.262Z,97.71
2018-07-23T03:24:23.542Z,97.91
2018-07-23T03:25:23.565Z,97.71
2018-07-23T03:26:23.594Z,97.71
2018-07-23T03:27:23.617Z,97.81
2018-07-23T03:28:23.643Z,97.81
2018-07-23T03:29:23.668Z,98
2018-07-23T03:30:23.434Z,97.62
2018-07-23T03:31:23.713Z,97.81
2018-07-23T03:32:23.737Z,97.81
2018-07-23T03:33:38.423Z,97.62
2018-07-23T03:34:23.791Z,97.33
2018-07-23T03:35:23.811Z,97.24
2018-07-23T03:36:23.835Z,97.38
2018-07-23T03:37:23.857Z,96.94
2018-07-23T03:38:23.882Z,97.33
2018-07-23T03:39:23.651Z,96.7
2018-07-23T03:42:23.982Z,96.89
2018-07-23T03:43:23.755Z,96.8
2018-07-23T03:44:24.040Z,97.04
2018-07-23T03:45:24.054Z,96.99
2018-07-23T03:46:24.078Z,96.89
2018-07-23T03:47:24.102Z,96.7
2018-07-23T03:48:24.125Z,96.22
2018-07-23T03:49:38.813Z,96.42
2018-07-23T03:50:24.174Z,96.32
2018-07-23T03:51:24.201Z,96.12
2018-07-23T03:52:24.225Z,96.12
2018-07-23T03:53:24.246Z,96.32
2018-07-23T03:54:24.271Z,96.22
2018-07-23T03:55:24.298Z,95.45
2018-07-23T03:56:24.320Z,95.74
2018-07-23T03:57:24.344Z,95.65
2018-07-23T03:58:24.373Z,95.84
2018-07-23T03:59:24.404Z,95.26
2018-07-23T04:00:24.163Z,95.74
2018-07-23T04:01:24.445Z,95.55
2018-07-23T04:02:24.467Z,95.26
2018-07-23T04:03:24.507Z,95.26
2018-07-23T04:04:24.527Z,95.94
2018-07-23T04:05:39.203Z,95.36
2018-07-23T04:06:24.565Z,95.55
2018-07-23T04:07:24.596Z,95.36
2018-07-23T04:08:24.618Z,95.45
2018-07-23T04:09:24.640Z,94.97
2018-07-23T04:10:24.665Z,95.17
2018-07-23T04:11:24.688Z,95.17
2018-07-23T04:12:24.747Z,94.59
2018-07-23T04:13:24.736Z,94.59
2018-07-23T04:14:24.761Z,93.91
2018-07-23T04:15:24.791Z,94.2
2018-07-23T04:17:24.928Z,93.43
2018-07-23T04:18:24.864Z,93.82
2018-07-23T04:19:24.885Z,93.72
2018-07-23T04:20:24.908Z,93.15
2018-07-23T04:21:39.597Z,92.85
2018-07-23T04:22:24.961Z,92.61
2018-07-23T04:23:24.985Z,92.42
2018-07-23T04:24:25.006Z,92.03
2018-07-23T04:25:25.037Z,91.55
2018-07-23T04:26:25.057Z,91.65
2018-07-23T04:27:25.078Z,91.36
2018-07-23T04:28:25.109Z,91.84
2018-07-23T04:29:25.249Z,91.07
2018-07-23T04:30:25.155Z,91.27
2018-07-23T04:31:25.181Z,90.88
2018-07-23T04:32:25.204Z,91.17
2018-07-23T04:33:25.228Z,91.27
2018-07-23T04:34:24.995Z,90.59
2018-07-23T04:35:25.283Z,90.69
2018-07-23T04:36:39.967Z,90.69
2018-07-23T04:37:25.333Z,91.17
2018-07-23T04:38:25.094Z,90.78
2018-07-23T04:39:25.381Z,90.59
2018-07-23T04:40:25.145Z,90.54
2018-07-23T04:41:25.429Z,89.39
2018-07-23T04:42:25.568Z,89.58
2018-07-23T04:43:25.477Z,90.4
2018-07-23T04:44:25.505Z,90.4
2018-07-23T04:47:25.575Z,88.71
2018-07-23T04:48:25.599Z,88.9
2018-07-23T04:49:25.783Z,88.32
2018-07-23T04:50:25.655Z,87.74
2018-07-23T04:51:25.418Z,87.02
2018-07-23T04:52:25.704Z,85.96
2018-07-23T04:53:25.466Z,83.88
2018-07-23T04:54:25.748Z,82.42
2018-07-23T04:55:25.774Z,80.24
2018-07-23T04:56:25.799Z,78.92
2018-07-23T04:57:25.826Z,76.64
2018-07-23T04:58:25.852Z,75.33
2018-07-23T04:59:25.921Z,74.11
2018-07-23T05:00:25.913Z,73.47
2018-07-23T05:01:25.935Z,74.21
2018-07-23T05:02:25.956Z,74.17
2018-07-23T05:03:25.986Z,73.24
2018-07-23T05:04:26.010Z,73.33
2018-07-23T05:05:26.040Z,73.72
2018-07-23T05:06:26.064Z,72.5
2018-07-23T05:07:26.097Z,71.92
2018-07-23T05:08:40.802Z,69.57
2018-07-23T05:09:26.150Z,69.02
2018-07-23T05:10:26.177Z,67.79
2018-07-23T05:11:26.203Z,66.72
2018-07-23T05:12:26.234Z,66.05
2018-07-23T05:13:26.262Z,65.59
2018-07-23T05:14:26.297Z,65.59
2018-07-23T05:15:26.318Z,66.14
2018-07-23T05:16:26.092Z,65.2
2018-07-23T05:17:26.380Z,64.46
2018-07-23T05:19:26.441Z,65.11
2018-07-23T05:20:26.463Z,65.01
2018-07-23T05:21:26.497Z,63.95
2018-07-23T05:22:26.268Z,63.29
2018-07-23T05:23:26.555Z,63.78
2018-07-23T05:24:41.250Z,62.71
2018-07-23T05:25:26.617Z,60.93
2018-07-23T05:26:26.646Z,60.02
2018-07-23T05:27:26.677Z,58.17
2018-07-23T05:28:26.707Z,57.84
2018-07-23T05:29:26.740Z,56.01
2018-07-23T05:30:26.766Z,55.36
2018-07-23T05:31:26.801Z,55.36
2018-07-23T05:32:26.833Z,55.91
2018-07-23T05:33:26.604Z,54.77
2018-07-23T05:34:26.891Z,54.87
2018-07-23T05:35:26.926Z,56.04
2018-07-23T05:36:26.958Z,55.23
2018-07-23T05:37:26.731Z,53.63
2018-07-23T05:38:27.148Z,53.29
2018-07-23T05:39:27.064Z,52.87
2018-07-23T05:40:41.750Z,53.27
2018-07-23T05:41:27.121Z,54.09
2018-07-23T05:42:27.153Z,55.46
2018-07-23T05:43:27.184Z,55.62
2018-07-23T05:44:27.216Z,54.91
2018-07-23T05:45:27.042Z,54.28
2018-07-23T05:46:27.282Z,52.56
2018-07-23T05:47:27.315Z,51.17
2018-07-23T05:48:27.345Z,51.82
2018-07-23T05:49:27.128Z,53.39
2018-07-23T05:50:27.418Z,52.95
2018-07-23T05:51:27.449Z,51.51
2018-07-23T05:52:27.482Z,50.59
2018-07-23T05:53:27.514Z,51.1
2018-07-23T05:54:27.551Z,51.56
2018-07-23T05:55:27.583Z,51.8
2018-07-23T05:56:42.280Z,51.24
2018-07-23T05:57:27.652Z,50.98
2018-07-23T05:58:27.683Z,51.56
2018-07-23T05:59:27.458Z,51.73
2018-07-23T06:00:27.753Z,51.73
2018-07-23T06:01:27.788Z,51.43
2018-07-23T06:02:27.563Z,50.75
2018-07-23T06:03:27.858Z,51.37
2018-07-23T06:04:27.894Z,50.39
2018-07-23T06:05:27.927Z,49.43
2018-07-23T06:06:28.100Z,50.9
2018-07-23T06:07:27.992Z,50.29
2018-07-23T06:08:28.032Z,49.26
2018-07-23T06:09:27.805Z,48.43
2018-07-23T06:10:28.098Z,47.45
2018-07-23T06:11:42.796Z,47.79
2018-07-23T06:12:28.169Z,46.62
2018-07-23T06:13:28.372Z,46.23
2018-07-23T06:14:28.237Z,45
2018-07-23T06:15:28.272Z,44.16
2018-07-23T06:16:28.307Z,43.29
2018-07-23T06:17:28.383Z,43.32
2018-07-23T06:18:28.379Z,43.29
2018-07-23T06:19:28.160Z,43.22
2018-07-23T06:20:28.452Z,44.04
2018-07-23T06:22:28.521Z,44.04
2018-07-23T06:23:28.661Z,43.49
2018-07-23T06:24:28.592Z,43.12
2018-07-23T06:25:28.634Z,44.23
2018-07-23T06:26:28.670Z,45.59
2018-07-23T06:27:28.702Z,46.03
2018-07-23T06:28:28.736Z,44.8
2018-07-23T06:29:28.517Z,45.88
2018-07-23T06:30:28.893Z,44.31
2018-07-23T06:31:28.588Z,42.79
2018-07-23T06:32:28.886Z,43.79
2018-07-23T06:33:28.923Z,43.66
2018-07-23T06:34:28.953Z,43
2018-07-23T06:35:28.989Z,42.9
2018-07-23T06:37:29.139Z,43.51
2018-07-23T06:38:29.103Z,42.53
2018-07-23T06:39:29.137Z,41.86
2018-07-23T06:40:29.176Z,40.9
2018-07-23T06:41:28.955Z,41.9
2018-07-23T06:42:28.991Z,44.35
2018-07-23T06:43:43.950Z,44.33
2018-07-23T06:44:29.324Z,44.6
2018-07-23T06:45:29.204Z,43.35
2018-07-23T06:46:29.400Z,43.1
2018-07-23T06:47:29.437Z,41.56
2018-07-23T06:48:29.470Z,41.88
2018-07-23T06:49:29.506Z,42.72
2018-07-23T06:50:29.550Z,44.73
2018-07-23T06:51:29.580Z,44.88
2018-07-23T06:52:29.614Z,43.82
2018-07-23T06:53:29.656Z,44.16
2018-07-23T06:54:29.695Z,42.68
2018-07-23T06:55:29.730Z,41.37
2018-07-23T06:56:29.511Z,40.13
2018-07-23T06:57:29.669Z,40.63
2018-07-23T06:58:29.845Z,39.54
2018-07-23T06:59:44.545Z,39.86
2018-07-23T07:00:29.991Z,39.25
2018-07-23T07:01:29.953Z,38.48
2018-07-23T07:02:30.003Z,38.51
2018-07-23T07:03:29.773Z,39.11
2018-07-23T07:04:30.065Z,39.01
2018-07-23T07:05:30.109Z,38.4
2018-07-23T07:06:30.374Z,38.58
2018-07-23T07:07:29.924Z,39.68
2018-07-23T07:08:30.217Z,40.21
2018-07-23T07:09:30.256Z,39.82
2018-07-23T07:10:30.294Z,39.82
2018-07-23T07:11:30.332Z,38.97
2018-07-23T07:12:30.370Z,37.83
2018-07-23T07:13:30.474Z,37.73
2018-07-23T07:14:30.448Z,37.65
2018-07-23T07:15:45.148Z,36.38
2018-07-23T07:16:30.522Z,35.93
2018-07-23T07:17:30.569Z,35.94
2018-07-23T07:18:30.612Z,36.02
2018-07-23T07:19:30.640Z,37.76
2018-07-23T07:20:30.674Z,38.56
2018-07-23T07:21:30.719Z,39.05
2018-07-23T07:22:30.493Z,38.18
2018-07-23T07:23:30.787Z,37.91
2018-07-23T07:25:30.994Z,37.61
2018-07-23T07:26:30.905Z,36.92
2018-07-23T07:27:30.950Z,36.45
2018-07-23T07:28:30.984Z,36.27
2018-07-23T07:29:31.018Z,35.79
2018-07-23T07:30:31.056Z,35.22
2018-07-23T07:31:45.760Z,35.12
2018-07-23T07:32:31.131Z,35.04
2018-07-23T07:33:31.168Z,36.78
2018-07-23T07:34:31.206Z,37.2
2018-07-23T07:35:31.247Z,39.05
2018-07-23T07:36:31.028Z,39.52
2018-07-23T07:37:31.065Z,39.4
2018-07-23T07:39:31.141Z,39.58
2018-07-23T07:42:31.524Z,37.49
2018-07-23T07:43:31.296Z,36.65
2018-07-23T07:44:31.591Z,35.86
2018-07-23T07:45:31.628Z,35.77
2018-07-23T07:46:46.335Z,35.96
2018-07-23T07:47:31.712Z,35.2
2018-07-23T07:48:31.743Z,33.54
2018-07-23T07:49:31.783Z,33.33
2018-07-23T07:50:31.823Z,33.34
2018-07-23T07:51:31.860Z,35.48
2018-07-23T07:52:31.898Z,34.75
2018-07-23T07:53:31.936Z,35.13
2018-07-23T07:54:31.718Z,35.53
2018-07-23T07:55:32.012Z,35.23
2018-07-23T07:56:32.053Z,35.43
2018-07-23T07:57:32.090Z,35.94
2018-07-23T07:58:32.129Z,35.35
2018-07-23T07:59:32.170Z,33.67
2018-07-23T08:00:32.206Z,33.33
2018-07-23T08:01:32.244Z,33.51
2018-07-23T08:02:32.283Z,33.03
2018-07-23T08:03:32.322Z,32.35
2018-07-23T08:04:32.098Z,34.34
2018-07-23T08:05:32.397Z,35.3
2018-07-23T08:06:32.434Z,34.61
2018-07-23T08:07:32.479Z,34.82
2018-07-23T08:08:32.517Z,35
2018-07-23T08:09:32.293Z,35.02
2018-07-23T08:10:32.330Z,35.99
2018-07-23T08:12:32.837Z,34.23
2018-07-23T08:13:32.447Z,35.02
2018-07-23T08:14:32.746Z,35.3
2018-07-23T08:15:32.524Z,36.18
2018-07-23T08:16:32.818Z,37.01
2018-07-23T08:17:32.854Z,36.9
2018-07-23T08:18:47.554Z,36.62
2018-07-23T08:19:32.929Z,36.44
2018-07-23T08:20:32.969Z,35.97
2018-07-23T08:21:33.008Z,35.2
2018-07-23T08:22:33.045Z,34.54
2018-07-23T08:23:33.080Z,33.74
2018-07-23T08:24:33.120Z,34.53
2018-07-23T08:25:33.169Z,34.53
2018-07-23T08:26:33.191Z,33.95
2018-07-23T08:28:33.010Z,34.9
2018-07-23T08:29:33.301Z,35.61
2018-07-23T08:30:33.342Z,33.97
2018-07-23T08:31:33.504Z,33.8
2018-07-23T08:32:33.418Z,33.8
2018-07-23T08:33:33.466Z,34.34
2018-07-23T08:34:48.157Z,34.05
2018-07-23T08:35:33.531Z,34.17
2018-07-23T08:36:33.308Z,34.05
2018-07-23T08:37:33.606Z,34.33
2018-07-23T08:38:33.667Z,34.22
2018-07-23T08:39:33.690Z,34.33
2018-07-23T08:40:33.716Z,33.26
2018-07-23T08:41:33.496Z,31.82
2018-07-23T08:42:33.790Z,31.82
2018-07-23T08:43:33.829Z,32.01
2018-07-23T08:44:33.863Z,32
2018-07-23T08:45:33.910Z,31.32
2018-07-23T08:46:33.940Z,31.62
2018-07-23T08:47:33.975Z,32.1
2018-07-23T08:48:34.067Z,32
2018-07-23T08:49:34.050Z,32.1
2018-07-23T08:50:48.751Z,33.26
2018-07-23T08:51:34.125Z,32.97
2018-07-23T08:52:34.161Z,32.9
2018-07-23T08:53:33.945Z,32.76
2018-07-23T08:54:34.233Z,33.07
2018-07-23T08:55:34.014Z,33.34
2018-07-23T08:56:34.308Z,34.22
2018-07-23T08:57:34.346Z,34.58
2018-07-23T08:58:34.384Z,34
2018-07-23T08:59:34.420Z,34.75
2018-07-23T09:00:34.461Z,35.31
2018-07-23T09:01:34.491Z,35.49
2018-07-23T09:02:34.529Z,35.13
2018-07-23T09:03:34.573Z,35.13
2018-07-23T09:04:34.602Z,35.23
2018-07-23T09:05:34.640Z,35.33
2018-07-23T09:06:49.340Z,34.74
2018-07-23T09:07:34.709Z,34.36
2018-07-23T09:08:34.952Z,33.31
2018-07-23T09:09:34.784Z,34.2
2018-07-23T09:10:34.822Z,33.82
2018-07-23T09:11:34.859Z,32.64
2018-07-23T09:12:34.892Z,32.77
2018-07-23T09:13:34.928Z,33.49
2018-07-23T09:15:35.002Z,32.04
2018-07-23T09:16:34.781Z,32.23
2018-07-23T09:17:35.075Z,33.22
2018-07-23T09:18:35.113Z,35.03
2018-07-23T09:19:35.146Z,35.68
2018-07-23T09:20:35.191Z,36.27
2018-07-23T09:21:49.882Z,36.63
2018-07-23T09:22:34.996Z,35.66
2018-07-23T09:23:35.289Z,34.41
2018-07-23T09:24:35.066Z,35.21
2018-07-23T09:25:35.101Z,35.27
2018-07-23T09:26:35.400Z,35.11
2018-07-23T09:27:35.441Z,35.35
2018-07-23T09:28:35.209Z,36.32
2018-07-23T09:29:35.504Z,36.61
2018-07-23T09:30:35.539Z,36.02
2018-07-23T09:31:35.573Z,36.14
2018-07-23T09:32:35.613Z,34.9
2018-07-23T09:33:35.641Z,34.13
2018-07-23T09:34:35.676Z,33.94
2018-07-23T09:35:35.455Z,33.92
2018-07-23T09:36:35.748Z,35.19
2018-07-23T09:37:35.782Z,35.19
2018-07-23T09:38:35.818Z,34.41
2018-07-23T09:39:35.854Z,33.85
2018-07-23T09:40:35.889Z,33.58
2018-07-23T09:41:35.920Z,33
2018-07-23T09:42:35.698Z,33.02
2018-07-23T09:43:35.992Z,33.22
2018-07-23T09:44:36.027Z,32.04
2018-07-23T09:45:36.149Z,32.72
2018-07-23T09:48:35.908Z,31.63
2018-07-23T09:49:35.942Z,31.04
2018-07-23T09:50:36.242Z,31.26
2018-07-23T09:51:36.269Z,31.36
2018-07-23T09:52:36.324Z,30.58
2018-07-23T09:53:51.004Z,30.27
2018-07-23T09:54:36.373Z,30.4
2018-07-23T09:55:36.408Z,29.9
2018-07-23T09:56:36.185Z,30.3
2018-07-23T09:57:36.476Z,30.87
2018-07-23T09:58:36.255Z,32.24
2018-07-23T09:59:36.757Z,33.65
2018-07-23T10:00:36.593Z,33.15
2018-07-23T10:01:36.618Z,33
2018-07-23T10:02:36.392Z,31.26
2018-07-23T10:03:36.847Z,32.33
2018-07-23T10:05:36.756Z,32.97
2018-07-23T10:06:36.786Z,32.89
2018-07-23T10:07:36.828Z,32.97
2018-07-23T10:08:36.855Z,33.05
2018-07-23T10:09:51.555Z,32.2
2018-07-23T10:10:36.667Z,32.12
2018-07-23T10:11:36.958Z,31.81
2018-07-23T10:12:36.735Z,32.95
2018-07-23T10:13:37.026Z,33.14
2018-07-23T10:14:37.061Z,33.22
2018-07-23T10:15:37.101Z,34.75
2018-07-23T10:16:37.138Z,34.65
2018-07-23T10:17:37.165Z,34.28
2018-07-23T10:19:37.235Z,35.47
2018-07-23T10:20:37.269Z,35.96
2018-07-23T10:21:37.299Z,35.17
2018-07-23T10:22:37.331Z,35.68
2018-07-23T10:23:37.368Z,35.13
2018-07-23T10:24:37.400Z,34.54
2018-07-23T10:25:52.095Z,34.36
2018-07-23T10:26:37.467Z,35.02
2018-07-23T10:27:37.504Z,35.29
2018-07-23T10:28:37.275Z,36.04
2018-07-23T10:29:37.639Z,35.76
2018-07-23T10:30:37.597Z,35.1
2018-07-23T10:31:37.631Z,35.31
2018-07-23T10:33:37.701Z,37.69
2018-07-23T10:34:37.734Z,37.47
2018-07-23T10:35:37.766Z,37.87
2018-07-23T10:37:37.832Z,39.59
2018-07-23T10:38:37.869Z,40.76
2018-07-23T10:39:37.898Z,41.05
2018-07-23T10:40:37.927Z,39.96
2018-07-23T10:41:52.627Z,39.49
2018-07-23T10:42:37.996Z,39.41
2018-07-23T10:43:37.771Z,39.29
2018-07-23T10:44:37.805Z,39.69
2018-07-23T10:45:37.837Z,39.12
2018-07-23T10:46:38.128Z,40.35
2018-07-23T10:47:38.161Z,40.33
2018-07-23T10:48:38.198Z,41.99
2018-07-23T10:49:37.968Z,42.16
2018-07-23T10:50:38.001Z,42.05
2018-07-23T10:51:38.032Z,41.48
2018-07-23T10:52:38.326Z,41.41
2018-07-23T10:53:38.356Z,41.21
2018-07-23T10:54:38.395Z,40.63
2018-07-23T10:55:38.423Z,41.02
2018-07-23T10:56:53.118Z,40.72
2018-07-23T10:57:38.490Z,40.16
2018-07-23T10:58:38.521Z,41.87
2018-07-23T10:59:38.550Z,41.83
2018-07-23T11:00:38.584Z,41.97
2018-07-23T11:02:38.645Z,42.85
2018-07-23T11:03:38.683Z,42.36
2018-07-23T11:04:38.710Z,42.93
2018-07-23T11:05:38.741Z,42.54
2018-07-23T11:07:38.806Z,42.12
2018-07-23T11:08:38.839Z,42.51
2018-07-23T11:09:38.868Z,42.3
2018-07-23T11:10:38.899Z,42.22
2018-07-23T11:11:38.932Z,43.47
2018-07-23T11:12:39.026Z,42.98
2018-07-23T11:13:39.001Z,43.47
2018-07-23T11:14:39.027Z,44.13
2018-07-23T11:15:38.801Z,43.93
2018-07-23T11:16:39.090Z,43.08
2018-07-23T11:17:39.126Z,43.27
2018-07-23T11:18:39.155Z,43
2018-07-23T11:19:39.183Z,43.19
2018-07-23T11:20:39.213Z,43.29
2018-07-23T11:21:38.990Z,42.88
2018-07-23T11:22:39.278Z,44.42
2018-07-23T11:23:39.309Z,45.47
2018-07-23T11:25:43.383Z,44.54
2018-07-23T11:26:42.925Z,44.34
2018-07-23T11:27:42.753Z,44.42
2018-07-23T11:28:42.526Z,44.44
2018-07-23T11:29:42.868Z,42.8
2018-07-23T11:30:42.845Z,42.98
2018-07-23T11:31:42.876Z,42.69
2018-07-23T11:32:42.906Z,43.44
2018-07-23T11:33:42.679Z,43.05
2018-07-23T11:34:42.969Z,42.49
2018-07-23T11:35:57.670Z,42.51
2018-07-23T11:36:42.770Z,42.22
2018-07-23T11:37:43.057Z,41.95
2018-07-23T11:38:43.089Z,42.24
2018-07-23T11:39:42.860Z,43.68
2018-07-23T11:40:43.149Z,42.4
2018-07-23T11:41:43.345Z,43.25
2018-07-23T11:42:42.993Z,42.57
2018-07-23T11:43:43.240Z,41.6
2018-07-23T11:45:43.302Z,43.15
2018-07-23T11:46:43.332Z,43.25
2018-07-23T11:47:43.361Z,43.95
2018-07-23T11:48:43.391Z,43.76
2018-07-23T11:49:43.422Z,42.79
2018-07-23T11:50:43.554Z,43.19
2018-07-23T11:51:58.145Z,42.88
2018-07-23T11:52:43.510Z,42.96
2018-07-23T11:53:43.783Z,42.38
2018-07-23T11:54:43.571Z,42.96
2018-07-23T11:56:43.796Z,43.54
2018-07-23T11:57:43.662Z,42.88
2018-07-23T11:58:43.694Z,42.79
2018-07-23T11:59:43.724Z,42.49
2018-07-23T12:01:43.870Z,42.61
2018-07-23T12:02:43.812Z,42.34
2018-07-23T12:03:43.840Z,42.24
2018-07-23T12:04:44.209Z,43.12
2018-07-23T12:05:43.907Z,41.66
2018-07-23T12:06:58.595Z,42.34
2018-07-23T12:07:43.703Z,41.83
2018-07-23T12:08:43.997Z,41.63
2018-07-23T12:09:44.021Z,42.14
2018-07-23T12:10:43.794Z,41.95
2018-07-23T12:11:44.116Z,40.78
2018-07-23T12:13:44.138Z,39.59
2018-07-23T12:14:44.170Z,40.37
2018-07-23T12:16:44.233Z,39.98
2018-07-23T12:17:44.364Z,39.98
2018-07-23T12:18:44.290Z,40.17
2018-07-23T12:19:44.326Z,40.27
2018-07-23T12:20:44.359Z,40.47
2018-07-23T12:21:44.380Z,39.88
2018-07-23T12:22:44.409Z,40.95
2018-07-23T12:23:44.181Z,40.64
2018-07-23T12:24:44.211Z,40.55
2018-07-23T12:25:44.499Z,40.73
2018-07-23T12:26:44.527Z,41.3
2018-07-23T12:27:44.559Z,41.52
2018-07-23T12:28:44.589Z,41.03
2018-07-23T12:29:44.616Z,40.17
2018-07-23T12:30:44.388Z,39.49
2018-07-23T12:31:44.677Z,38.32
2018-07-23T12:32:44.705Z,38.9
2018-07-23T12:33:44.739Z,39.47
2018-07-23T12:34:44.765Z,39.57
2018-07-23T12:35:44.795Z,40.76
2018-07-23T12:36:44.828Z,40.45
2018-07-23T12:37:44.855Z,41.35
2018-07-23T12:38:59.546Z,41.17
2018-07-23T12:39:45.023Z,40.68
2018-07-23T12:40:44.686Z,41.44
2018-07-23T12:41:44.975Z,40.97
2018-07-23T12:42:45.006Z,41.09
2018-07-23T12:43:44.774Z,40.21
2018-07-23T12:44:44.805Z,39.23
2018-07-23T12:46:45.126Z,38.73
2018-07-23T12:48:45.182Z,39.51
2018-07-23T12:49:45.213Z,39.51
2018-07-23T12:50:45.239Z,40.19
2018-07-23T12:51:45.268Z,39.7
2018-07-23T12:52:45.435Z,40.29
2018-07-23T12:53:45.326Z,40.19
2018-07-23T12:55:00.021Z,40.29
2018-07-23T12:55:45.391Z,40.78
2018-07-23T12:56:45.416Z,40.48
2018-07-23T12:57:45.453Z,40.39
2018-07-23T12:58:45.480Z,40.19
2018-07-23T12:59:45.284Z,39.61
2018-07-23T13:00:45.534Z,40.68
2018-07-23T13:01:45.566Z,40.48
2018-07-23T13:02:45.337Z,40.5
2018-07-23T13:03:45.620Z,40.97
2018-07-23T13:04:45.656Z,40.7
2018-07-23T13:05:45.681Z,40.7
2018-07-23T13:06:45.711Z,41.17
2018-07-23T13:07:45.745Z,41.17
2018-07-23T13:08:45.773Z,40.97
2018-07-23T13:09:45.544Z,40.39
2018-07-23T13:11:00.493Z,41.36
2018-07-23T13:11:45.872Z,42.12
2018-07-23T13:12:45.891Z,42.12
2018-07-23T13:13:45.919Z,41.46
2018-07-23T13:14:45.976Z,41.75
2018-07-23T13:15:45.980Z,41.27
2018-07-23T13:16:46.009Z,42.24
2018-07-23T13:17:46.038Z,42.34
2018-07-23T13:18:46.073Z,42.63
2018-07-23T13:21:46.157Z,42.44
2018-07-23T13:22:46.206Z,42.24
2018-07-23T13:23:45.956Z,42.63
2018-07-23T13:24:46.246Z,43.12
2018-07-23T13:25:46.338Z,42.36
2018-07-23T13:27:00.965Z,42.83
2018-07-23T13:27:46.074Z,42.85
2018-07-23T13:28:46.105Z,42.54
2018-07-23T13:29:46.389Z,42.63
2018-07-23T13:30:46.423Z,43.12
2018-07-23T13:31:46.451Z,44.07
2018-07-23T13:32:46.482Z,43.51
2018-07-23T13:33:46.518Z,43.12
2018-07-23T13:34:46.539Z,42.07
2018-07-23T13:35:46.568Z,42.94
2018-07-23T13:37:46.627Z,43.98
2018-07-23T13:38:46.659Z,44.07
2018-07-23T13:39:46.686Z,44.27
2018-07-23T13:40:46.716Z,44.07
2018-07-23T13:42:01.415Z,43.1